createdAt,value
2018-03-29T00:00:16.825Z,90.30
2018-03-29T00:02:44.974Z,90.30
2018-03-29T00:05:13.100Z,90.30
2018-03-29T00:07:41.178Z,90.30
2018-03-29T00:10:09.316Z,90.30
2018-03-29T00:12:37.426Z,90.20
2018-03-29T00:15:05.647Z,90.10
2018-03-29T00:17:33.741Z,90.10
2018-03-29T00:20:01.848Z,90.00
2018-03-29T00:22:29.955Z,90.00
2018-03-29T00:24:58.808Z,90.10
2018-03-29T00:27:26.980Z,90.00
2018-03-29T00:29:55.802Z,89.90
2018-03-29T00:32:23.925Z,89.90
2018-03-29T00:34:52.008Z,89.90
2018-03-29T00:37:20.112Z,89.90
2018-03-29T00:39:48.211Z,89.70
2018-03-29T00:42:16.341Z,89.70
2018-03-29T00:44:44.461Z,89.70
2018-03-29T00:47:13.607Z,89.80
2018-03-29T00:49:41.723Z,89.70
2018-03-29T00:52:09.828Z,89.70
2018-03-29T00:54:37.923Z,89.70
2018-03-29T00:57:06.157Z,89.70
2018-03-29T00:59:34.267Z,89.80
2018-03-29T01:02:02.387Z,89.80
2018-03-29T01:04:30.479Z,89.80
2018-03-29T01:06:58.586Z,89.90
2018-03-29T01:09:26.719Z,90.00
2018-03-29T01:11:54.856Z,90.00
2018-03-29T01:14:22.948Z,89.80
2018-03-29T01:16:51.034Z,89.70
2018-03-29T01:19:19.138Z,89.60
2018-03-29T01:21:47.346Z,89.50
2018-03-29T01:24:16.796Z,89.40
2018-03-29T01:26:45.068Z,89.40
2018-03-29T01:29:13.256Z,89.30
2018-03-29T01:31:41.422Z,89.40
2018-03-29T01:34:09.526Z,89.50
2018-03-29T01:36:37.662Z,89.30
2018-03-29T01:39:05.824Z,90.00
2018-03-29T01:41:33.958Z,89.10
2018-03-29T01:44:02.841Z,89.30
2018-03-29T01:46:30.974Z,89.20
2018-03-29T01:48:59.161Z,89.20
2018-03-29T01:51:27.304Z,89.20
2018-03-29T01:53:55.460Z,89.30
2018-03-29T01:56:24.267Z,89.20
2018-03-29T01:58:52.397Z,89.20
2018-03-29T02:01:20.519Z,89.00
2018-03-29T02:03:48.943Z,89.10
2018-03-29T02:06:17.860Z,89.10
2018-03-29T02:08:46.165Z,89.10
2018-03-29T02:11:14.348Z,88.70
2018-03-29T02:13:42.466Z,88.10
2018-03-29T02:16:10.573Z,88.00
2018-03-29T02:18:38.665Z,88.10
2018-03-29T02:21:06.835Z,88.10
2018-03-29T02:23:34.955Z,88.10
2018-03-29T02:26:03.063Z,87.70
2018-03-29T02:28:31.204Z,87.60
2018-03-29T02:31:00.152Z,87.70
2018-03-29T02:33:28.251Z,88.50
2018-03-29T02:35:56.454Z,87.90
2018-03-29T02:38:25.324Z,87.80
2018-03-29T02:40:53.488Z,87.80
2018-03-29T02:43:21.586Z,87.80
2018-03-29T02:45:54.120Z,87.70
2018-03-29T02:48:22.218Z,87.50
2018-03-29T02:50:54.238Z,87.50
2018-03-29T02:53:22.368Z,87.70
2018-03-29T02:55:50.487Z,87.70
2018-03-29T02:58:18.612Z,87.70
2018-03-29T03:00:46.797Z,87.80
2018-03-29T03:03:15.306Z,87.60
2018-03-29T03:05:44.323Z,87.60
2018-03-29T03:08:12.440Z,87.60
2018-03-29T03:10:40.552Z,87.50
2018-03-29T03:13:08.812Z,87.50
2018-03-29T03:15:37.070Z,87.60
2018-03-29T03:18:09.263Z,87.60
2018-03-29T03:20:37.434Z,87.70
2018-03-29T03:23:05.580Z,87.50
2018-03-29T03:25:33.691Z,87.50
2018-03-29T03:28:01.829Z,87.50
2018-03-29T03:30:29.995Z,87.50
2018-03-29T03:32:58.861Z,87.70
2018-03-29T03:35:27.118Z,87.50
2018-03-29T03:37:55.263Z,87.80
2018-03-29T03:40:23.348Z,87.60
2018-03-29T03:42:51.463Z,87.80
2018-03-29T03:45:19.584Z,87.80
2018-03-29T03:47:47.804Z,87.90
2018-03-29T03:50:16.086Z,87.90
2018-03-29T03:52:44.197Z,88.00
2018-03-29T03:55:12.343Z,88.10
2018-03-29T03:57:41.593Z,88.30
2018-03-29T04:00:09.709Z,88.20
2018-03-29T04:02:42.839Z,88.30
2018-03-29T04:05:10.983Z,88.30
2018-03-29T04:07:39.306Z,88.30
2018-03-29T04:10:07.399Z,88.30
2018-03-29T04:12:35.538Z,88.30
2018-03-29T04:15:03.626Z,88.40
2018-03-29T04:17:31.767Z,88.20
2018-03-29T04:19:59.950Z,88.10
2018-03-29T04:22:28.181Z,87.80
2018-03-29T04:24:56.414Z,87.90
2018-03-29T04:27:24.516Z,88.00
2018-03-29T04:29:52.774Z,88.10
2018-03-29T04:32:20.866Z,88.30
2018-03-29T04:34:49.008Z,88.40
2018-03-29T04:37:17.892Z,88.50
2018-03-29T04:39:46.773Z,88.70
2018-03-29T04:42:14.883Z,88.80
2018-03-29T04:44:43.004Z,88.90
2018-03-29T04:47:11.108Z,89.00
2018-03-29T04:49:39.228Z,89.10
2018-03-29T04:52:07.385Z,89.10
2018-03-29T04:54:36.462Z,89.10
2018-03-29T04:57:04.625Z,89.00
2018-03-29T04:59:32.775Z,88.90
2018-03-29T05:02:00.988Z,88.80
2018-03-29T05:04:29.075Z,88.10
2018-03-29T05:06:57.183Z,88.10
2018-03-29T05:09:25.343Z,87.80
2018-03-29T05:11:53.529Z,87.40
2018-03-29T05:14:26.213Z,87.30
2018-03-29T05:16:54.421Z,87.30
2018-03-29T05:19:22.666Z,87.20
2018-03-29T05:21:50.863Z,87.40
2018-03-29T05:24:18.981Z,87.50
2018-03-29T05:26:50.905Z,87.60
2018-03-29T05:29:19.663Z,87.50
2018-03-29T05:31:47.775Z,87.40
2018-03-29T05:34:16.058Z,87.50
2018-03-29T05:36:44.177Z,87.50
2018-03-29T05:39:12.316Z,87.50
2018-03-29T05:41:40.393Z,87.50
2018-03-29T05:44:08.514Z,87.30
2018-03-29T05:46:36.590Z,87.20
2018-03-29T05:49:04.748Z,87.10
2018-03-29T05:51:36.844Z,87.00
2018-03-29T05:54:04.966Z,87.00
2018-03-29T05:56:33.244Z,87.10
2018-03-29T05:59:01.494Z,87.00
2018-03-29T06:01:29.696Z,86.90
2018-03-29T06:03:57.894Z,87.20
2018-03-29T06:06:26.144Z,87.20
2018-03-29T06:08:55.012Z,87.20
2018-03-29T06:11:23.127Z,87.30
2018-03-29T06:13:56.627Z,87.30
2018-03-29T06:16:24.746Z,87.20
2018-03-29T06:18:58.438Z,87.00
2018-03-29T06:21:26.583Z,87.20
2018-03-29T06:23:54.702Z,87.10
2018-03-29T06:26:23.615Z,87.30
2018-03-29T06:28:51.724Z,87.30
2018-03-29T06:31:19.809Z,87.30
2018-03-29T06:33:47.930Z,87.20
2018-03-29T06:36:16.073Z,87.20
2018-03-29T06:38:44.184Z,87.10
2018-03-29T06:41:12.357Z,87.00
2018-03-29T06:43:40.568Z,87.00
2018-03-29T06:46:08.833Z,86.90
2018-03-29T06:48:37.000Z,87.10
2018-03-29T06:51:05.132Z,87.20
2018-03-29T06:53:33.244Z,87.40
2018-03-29T06:56:01.964Z,87.20
2018-03-29T06:58:30.095Z,87.20
2018-03-29T07:00:58.233Z,87.00
2018-03-29T07:03:26.908Z,87.20
2018-03-29T07:05:59.180Z,87.10
2018-03-29T07:08:27.304Z,87.30
2018-03-29T07:10:55.422Z,87.40
2018-03-29T07:13:23.542Z,87.40
2018-03-29T07:15:51.672Z,87.30
2018-03-29T07:18:19.758Z,87.40
2018-03-29T07:20:47.883Z,87.40
2018-03-29T07:23:16.026Z,87.10
2018-03-29T07:25:44.137Z,87.00
2018-03-29T07:28:12.249Z,86.80
2018-03-29T07:30:40.354Z,86.50
2018-03-29T07:33:10.310Z,85.90
2018-03-29T07:35:38.474Z,86.00
2018-03-29T07:38:10.861Z,86.00
2018-03-29T07:40:38.961Z,86.40
2018-03-29T07:43:11.892Z,86.50
2018-03-29T07:45:40.033Z,86.50
2018-03-29T07:48:08.935Z,86.40
2018-03-29T07:50:37.025Z,86.50
2018-03-29T07:53:05.183Z,86.70
2018-03-29T07:55:33.476Z,86.40
2018-03-29T07:58:01.637Z,85.90
2018-03-29T08:00:29.807Z,86.10
2018-03-29T08:02:57.905Z,86.40
2018-03-29T08:05:26.059Z,86.50
2018-03-29T08:07:54.230Z,86.80
2018-03-29T08:10:22.562Z,86.20
2018-03-29T08:12:50.684Z,86.30
2018-03-29T08:15:18.787Z,86.70
2018-03-29T08:17:47.697Z,86.20
2018-03-29T08:20:15.818Z,86.20
2018-03-29T08:22:43.967Z,85.80
2018-03-29T08:25:12.084Z,85.90
2018-03-29T08:27:40.562Z,86.80
2018-03-29T08:30:08.673Z,86.10
2018-03-29T08:32:37.721Z,86.00
2018-03-29T08:35:05.898Z,85.20
2018-03-29T08:37:34.010Z,84.40
2018-03-29T08:40:02.149Z,84.50
2018-03-29T08:42:30.250Z,84.10
2018-03-29T08:44:58.370Z,84.20
2018-03-29T08:47:26.576Z,85.00
2018-03-29T08:49:55.465Z,85.20
2018-03-29T08:52:23.573Z,85.20
2018-03-29T08:54:52.455Z,85.00
2018-03-29T08:57:21.347Z,85.20
2018-03-29T08:59:49.468Z,85.20
2018-03-29T09:02:18.075Z,85.30
2018-03-29T09:04:50.418Z,85.70
2018-03-29T09:07:18.508Z,85.50
2018-03-29T09:09:46.850Z,84.90
2018-03-29T09:12:15.043Z,85.00
2018-03-29T09:14:43.235Z,85.20
2018-03-29T09:17:12.173Z,85.50
2018-03-29T09:19:40.285Z,85.60
2018-03-29T09:22:08.415Z,85.30
2018-03-29T09:24:36.539Z,85.30
2018-03-29T09:27:04.689Z,85.50
2018-03-29T09:29:37.099Z,85.40
2018-03-29T09:32:06.099Z,85.40
2018-03-29T09:34:34.919Z,84.60
2018-03-29T09:37:08.183Z,83.30
2018-03-29T09:39:36.926Z,83.30
2018-03-29T09:42:09.864Z,84.10
2018-03-29T09:57:32.988Z,85.20
2018-03-29T10:00:05.726Z,84.30
2018-03-29T10:02:33.879Z,85.40
2018-03-29T10:05:07.687Z,85.00
2018-03-29T10:07:36.372Z,85.00
2018-03-29T10:10:04.504Z,85.60
2018-03-29T10:12:32.630Z,84.30
2018-03-29T10:15:00.762Z,85.00
2018-03-29T10:17:32.784Z,85.30
2018-03-29T10:20:00.936Z,84.80
2018-03-29T10:22:29.043Z,84.30
2018-03-29T10:24:57.224Z,84.70
2018-03-29T10:27:26.079Z,84.80
2018-03-29T10:29:54.168Z,84.30
2018-03-29T10:32:22.315Z,83.90
2018-03-29T10:34:50.514Z,84.00
2018-03-29T10:37:19.405Z,83.40
2018-03-29T10:39:48.419Z,83.80
2018-03-29T10:42:16.773Z,83.40
2018-03-29T10:44:48.247Z,83.80
2018-03-29T10:47:17.129Z,84.00
2018-03-29T10:49:45.647Z,84.30
2018-03-29T10:52:13.765Z,82.20
2018-03-29T10:54:42.227Z,82.20
2018-03-29T10:57:10.359Z,82.80
2018-03-29T10:59:39.685Z,83.40
2018-03-29T11:02:09.261Z,84.00
2018-03-29T11:04:38.087Z,83.90
2018-03-29T11:07:06.253Z,82.90
2018-03-29T11:09:35.127Z,82.50
2018-03-29T11:12:03.237Z,83.10
2018-03-29T11:14:32.183Z,83.50
2018-03-29T11:17:00.415Z,83.40
2018-03-29T11:19:28.560Z,82.80
2018-03-29T11:21:56.850Z,82.50
2018-03-29T11:24:24.954Z,82.20
2018-03-29T11:26:57.520Z,82.50
2018-03-29T11:29:25.728Z,82.50
2018-03-29T11:31:53.924Z,83.00
2018-03-29T11:34:22.092Z,83.40
2018-03-29T11:36:50.876Z,82.50
2018-03-29T11:39:20.054Z,82.80
2018-03-29T11:41:48.742Z,82.70
2018-03-29T11:44:16.919Z,83.20
2018-03-29T11:46:46.062Z,82.80
2018-03-29T11:49:15.036Z,82.90
2018-03-29T11:51:43.144Z,82.80
2018-03-29T11:54:11.689Z,81.80
2018-03-29T11:56:40.326Z,80.90
2018-03-29T11:59:08.482Z,81.20
2018-03-29T12:01:36.713Z,81.80
2018-03-29T12:04:05.144Z,81.20
2018-03-29T12:06:33.985Z,82.10
2018-03-29T12:09:03.119Z,82.40
2018-03-29T12:11:34.942Z,82.90
2018-03-29T12:14:03.055Z,82.90
2018-03-29T12:16:31.203Z,81.30
2018-03-29T12:18:59.453Z,78.70
2018-03-29T12:21:27.623Z,78.80
2018-03-29T12:23:56.547Z,78.70
2018-03-29T12:26:24.647Z,75.70
2018-03-29T12:28:52.774Z,75.60
2018-03-29T12:31:20.873Z,75.10
2018-03-29T12:33:49.228Z,75.70
2018-03-29T12:36:17.351Z,76.00
2018-03-29T12:38:45.483Z,76.70
2018-03-29T12:41:13.587Z,77.60
2018-03-29T12:43:45.957Z,76.70
2018-03-29T12:46:14.917Z,78.00
2018-03-29T12:48:44.395Z,79.10
2018-03-29T12:51:12.526Z,79.10
2018-03-29T12:53:40.848Z,79.20
2018-03-29T12:56:25.428Z,78.60
2018-03-29T12:58:53.710Z,78.30
2018-03-29T13:01:21.924Z,78.00
2018-03-29T13:03:50.091Z,77.40
2018-03-29T13:06:18.528Z,76.70
2018-03-29T13:08:46.809Z,76.50
2018-03-29T13:11:14.930Z,76.90
2018-03-29T13:13:43.050Z,78.40
2018-03-29T13:16:11.944Z,79.30
2018-03-29T13:18:40.060Z,79.80
2018-03-29T13:21:08.193Z,78.90
2018-03-29T13:23:36.348Z,77.40
2018-03-29T13:26:04.452Z,77.80
2018-03-29T13:28:32.578Z,77.80
2018-03-29T13:31:00.721Z,78.10
2018-03-29T13:33:28.820Z,77.80
2018-03-29T13:35:58.728Z,77.90
2018-03-29T13:38:27.173Z,76.80
2018-03-29T13:40:59.679Z,77.30
2018-03-29T13:43:28.009Z,77.20
2018-03-29T13:45:56.140Z,78.20
2018-03-29T13:48:24.913Z,78.90
2018-03-29T13:51:01.923Z,79.50
2018-03-29T13:53:30.047Z,79.70
2018-03-29T13:55:58.179Z,79.30
2018-03-29T13:58:26.305Z,79.30
2018-03-29T14:00:54.450Z,79.40
2018-03-29T14:03:22.561Z,80.00
2018-03-29T14:05:50.671Z,81.30
2018-03-29T14:08:19.690Z,80.60
2018-03-29T14:10:47.919Z,80.60
2018-03-29T14:13:16.176Z,80.70
2018-03-29T14:15:46.853Z,80.90
2018-03-29T14:18:16.473Z,80.70
2018-03-29T14:20:50.418Z,80.70
2018-03-29T14:23:28.169Z,80.70
2018-03-29T14:25:56.960Z,80.30
2018-03-29T14:28:28.523Z,80.50
2018-03-29T14:30:56.656Z,80.60
2018-03-29T14:33:25.792Z,80.70
2018-03-29T14:36:11.066Z,80.70
2018-03-29T14:38:40.868Z,80.70
2018-03-29T14:41:10.191Z,80.90
2018-03-29T14:43:38.810Z,80.90
2018-03-29T14:46:10.932Z,80.90
2018-03-29T14:48:39.061Z,80.80
2018-03-29T14:51:07.190Z,80.80
2018-03-29T14:53:35.640Z,80.90
2018-03-29T14:56:03.882Z,80.70
2018-03-29T14:58:32.476Z,80.30
2018-03-29T15:01:00.710Z,80.20
2018-03-29T15:03:28.982Z,80.30
2018-03-29T15:05:57.276Z,80.30
2018-03-29T15:08:54.714Z,80.40
2018-03-29T15:11:23.071Z,80.40
2018-03-29T15:14:12.603Z,80.70
2018-03-29T15:16:40.773Z,80.70
2018-03-29T15:19:08.910Z,80.10
2018-03-29T15:21:37.093Z,80.40
2018-03-29T15:24:05.221Z,80.60
2018-03-29T15:26:33.384Z,80.20
2018-03-29T15:29:01.584Z,80.50
2018-03-29T15:31:30.625Z,80.70
2018-03-29T15:34:03.362Z,80.40
2018-03-29T15:36:32.217Z,80.20
2018-03-29T15:39:00.352Z,80.20
2018-03-29T15:41:28.559Z,80.10
2018-03-29T15:43:56.732Z,79.70
2018-03-29T15:46:25.054Z,79.70
2018-03-29T15:48:53.183Z,80.00
2018-03-29T15:51:25.877Z,80.10
2018-03-29T15:53:54.111Z,80.00
2018-03-29T15:56:23.743Z,80.80
2018-03-29T15:58:51.897Z,81.00
2018-03-29T16:01:20.316Z,81.40
2018-03-29T16:03:48.480Z,81.80
2018-03-29T16:06:16.594Z,82.10
2018-03-29T16:21:40.189Z,82.20
2018-03-29T16:24:08.356Z,82.60
2018-03-29T16:26:36.536Z,83.50
2018-03-29T16:29:04.657Z,84.20
2018-03-29T16:31:32.806Z,84.40
2018-03-29T16:34:00.906Z,84.30
2018-03-29T16:36:30.397Z,84.30
2018-03-29T16:38:58.521Z,84.30
2018-03-29T16:41:27.067Z,84.30
2018-03-29T16:43:55.211Z,84.30
2018-03-29T16:46:23.299Z,84.10
2018-03-29T16:48:51.818Z,84.00
2018-03-29T16:51:19.925Z,84.00
2018-03-29T16:53:48.013Z,84.00
2018-03-29T16:56:16.116Z,84.10
2018-03-29T16:58:44.256Z,84.10
2018-03-29T17:01:12.406Z,84.10
2018-03-29T17:03:40.558Z,84.00
2018-03-29T17:06:08.684Z,83.90
2018-03-29T17:08:36.839Z,84.00
2018-03-29T17:11:04.943Z,84.10
2018-03-29T17:13:33.078Z,84.10
2018-03-29T17:16:01.200Z,84.00
2018-03-29T17:18:30.145Z,83.80
2018-03-29T17:20:58.273Z,83.90
2018-03-29T17:23:26.417Z,83.70
2018-03-29T17:42:00.328Z,83.80
2018-03-29T17:44:28.456Z,83.70
2018-03-29T17:46:57.366Z,84.50
2018-03-29T17:49:25.544Z,84.90
2018-03-29T17:51:53.722Z,85.10
2018-03-29T17:54:21.914Z,85.40
2018-03-29T17:57:00.327Z,85.40
2018-03-29T17:59:28.456Z,85.40
2018-03-29T18:01:57.381Z,85.20
2018-03-29T18:04:33.107Z,85.20
2018-03-29T18:07:01.344Z,85.30
2018-03-29T18:09:30.363Z,85.30
2018-03-29T18:11:58.929Z,85.30
2018-03-29T18:14:27.188Z,85.20
2018-03-29T18:16:56.276Z,85.20
2018-03-29T18:19:25.385Z,85.20
2018-03-29T18:21:55.247Z,85.20
2018-03-29T18:24:23.375Z,85.20
2018-03-29T18:26:51.579Z,85.20
2018-03-29T18:29:19.784Z,85.00
2018-03-29T18:31:47.938Z,85.00
2018-03-29T18:34:16.057Z,85.00
2018-03-29T18:36:44.926Z,85.20
2018-03-29T18:39:13.123Z,84.90
2018-03-29T18:41:41.694Z,85.00
2018-03-29T18:44:10.883Z,84.90
2018-03-29T18:46:43.052Z,84.40
2018-03-29T18:49:11.194Z,85.00
2018-03-29T18:51:39.398Z,85.00
2018-03-29T18:54:07.500Z,85.00
2018-03-29T18:56:35.640Z,85.00
2018-03-29T19:11:58.777Z,85.00
2018-03-29T19:14:26.890Z,84.40
2018-03-29T19:16:55.655Z,85.00
2018-03-29T19:19:24.530Z,85.10
2018-03-29T19:22:03.017Z,85.60
2018-03-29T19:24:31.115Z,85.60
2018-03-29T19:27:04.027Z,85.60
2018-03-29T19:29:37.339Z,85.60
2018-03-29T19:32:09.389Z,85.60
2018-03-29T19:34:37.547Z,85.60
2018-03-29T19:37:05.812Z,85.60
2018-03-29T19:39:33.994Z,85.50
2018-03-29T19:42:02.173Z,85.50
2018-03-29T19:44:30.263Z,85.40
2018-03-29T19:46:58.946Z,85.30
2018-03-29T19:49:27.130Z,85.20
2018-03-29T19:51:55.366Z,85.10
2018-03-29T19:54:23.608Z,85.00
2018-03-29T19:56:55.727Z,85.00
2018-03-29T19:59:23.863Z,84.80
2018-03-29T20:01:51.983Z,84.60
2018-03-29T20:04:20.112Z,84.50
2018-03-29T20:06:48.224Z,84.30
2018-03-29T20:09:17.117Z,84.10
2018-03-29T20:11:45.992Z,84.10
2018-03-29T20:14:14.940Z,84.80
2018-03-29T20:16:43.066Z,84.00
2018-03-29T20:19:11.173Z,84.10
2018-03-29T20:21:39.278Z,84.00
2018-03-29T20:24:07.525Z,83.90
2018-03-29T20:26:35.721Z,83.90
2018-03-29T20:29:04.242Z,83.70
2018-03-29T20:31:32.339Z,83.70
2018-03-29T20:34:00.473Z,83.60
2018-03-29T20:36:28.601Z,83.60
2018-03-29T20:38:56.805Z,83.60
2018-03-29T20:41:24.916Z,83.60
2018-03-29T20:43:53.794Z,83.60
2018-03-29T20:46:21.897Z,83.60
2018-03-29T20:48:50.004Z,83.50
2018-03-29T20:51:18.155Z,83.60
2018-03-29T20:53:46.261Z,83.60
2018-03-29T20:56:15.019Z,83.50
2018-03-29T20:58:43.100Z,83.40
2018-03-29T21:01:11.229Z,83.40
2018-03-29T21:03:39.357Z,83.30
2018-03-29T21:06:07.675Z,83.30
2018-03-29T21:08:35.790Z,83.40
2018-03-29T21:11:04.110Z,83.30
2018-03-29T21:13:32.256Z,83.30
2018-03-29T21:16:01.154Z,83.30
2018-03-29T21:18:29.412Z,83.30
2018-03-29T21:20:57.539Z,83.50
2018-03-29T21:23:25.821Z,83.60
2018-03-29T21:25:53.944Z,83.60
2018-03-29T21:28:22.040Z,83.60
2018-03-29T21:30:50.178Z,83.70
2018-03-29T21:33:18.281Z,83.90
2018-03-29T21:35:46.442Z,84.00
2018-03-29T21:38:14.548Z,84.00
2018-03-29T21:40:43.286Z,83.80
2018-03-29T21:43:11.413Z,83.80
2018-03-29T21:45:39.768Z,83.70
2018-03-29T21:48:08.034Z,83.70
2018-03-29T21:50:36.126Z,83.70
2018-03-29T21:53:04.322Z,83.70
2018-03-29T21:55:32.498Z,83.70
2018-03-29T21:58:00.725Z,83.70
2018-03-29T22:00:29.011Z,83.60
2018-03-29T22:02:57.728Z,83.50
2018-03-29T22:05:25.857Z,83.50
2018-03-29T22:07:53.942Z,83.50
2018-03-29T22:10:22.061Z,83.50
2018-03-29T22:12:50.244Z,83.60
2018-03-29T22:15:18.364Z,83.60
2018-03-29T22:17:46.463Z,83.50
2018-03-29T22:20:14.607Z,83.50
2018-03-29T22:22:42.760Z,83.50
2018-03-29T22:25:10.878Z,83.50
2018-03-29T22:27:39.081Z,83.40
2018-03-29T22:30:07.197Z,83.40
2018-03-29T22:32:35.387Z,83.20
2018-03-29T22:35:03.576Z,83.20
2018-03-29T22:37:31.671Z,83.10
2018-03-29T22:39:59.789Z,83.10
2018-03-29T22:42:28.044Z,83.00
2018-03-29T22:44:56.181Z,83.00
2018-03-29T22:47:24.272Z,83.00
2018-03-29T22:49:52.371Z,83.00
2018-03-29T22:52:20.486Z,83.10
2018-03-29T22:54:48.761Z,83.10
2018-03-29T22:57:21.342Z,83.10
2018-03-29T22:59:50.425Z,83.10
2018-03-29T23:02:19.452Z,83.20
2018-03-29T23:04:51.449Z,83.00
2018-03-29T23:07:19.617Z,83.10
2018-03-29T23:09:51.532Z,83.10
2018-03-29T23:12:19.704Z,83.10
2018-03-29T23:14:48.232Z,82.90
2018-03-29T23:17:16.345Z,83.00
2018-03-29T23:19:44.556Z,83.00
2018-03-29T23:22:12.638Z,83.00
2018-03-29T23:24:40.738Z,83.00
2018-03-29T23:27:09.569Z,83.00
2018-03-29T23:29:37.762Z,83.00
2018-03-29T23:32:05.933Z,82.80
2018-03-29T23:34:34.107Z,82.90
2018-03-29T23:37:02.227Z,83.00
2018-03-29T23:39:30.320Z,83.00
2018-03-29T23:41:58.459Z,83.00
2018-03-29T23:44:26.560Z,83.10
2018-03-29T23:46:54.657Z,83.20
2018-03-29T23:49:22.773Z,83.20
2018-03-29T23:51:50.927Z,83.30
2018-03-29T23:54:19.152Z,83.30
2018-03-29T23:56:50.527Z,83.30
2018-03-29T23:59:18.811Z,83.20
